Time;durP1;ratioP1;P1;durP2;ratioP2;P2;SDS_P1;SDS_P2;PMS_P1;PMS_P2;Temp;Humidity;BMP_temperature;BMP_pressure;BME280_temperature;BME280_humidity;BME280_pressure;Samples;Min_cycle;Max_cycle;Signal;HPM_P1;HPM_P2
2023/04/04 00:00:41;;;;;;;8.88;1.90;;;;;;;;;;5050662;28;20041;-75
2023/04/04 00:03:45;;;;;;;5.13;1.60;;;12.20;73.80;;;;;;5050428;28;20037;-72
2023/04/04 00:06:50;;;;;;;10.82;1.67;;;12.00;73.70;;;;;;5050183;28;20055;-73
2023/04/04 00:09:55;;;;;;;7.30;1.63;;;12.40;74.10;;;;;;5049265;28;20044;-73
2023/04/04 00:12:59;;;;;;;7.57;2.45;;;12.20;72.30;;;;;;5051988;28;20039;-74
2023/04/04 00:16:03;;;;;;;8.60;1.50;;;12.20;72.70;;;;;;5053935;28;20523;-75
2023/04/04 00:19:10;;;;;;;5.72;1.60;;;13.60;73.80;;;;;;5052908;28;20052;-75
2023/04/04 00:22:14;;;;;;;3.17;1.30;;;;;;;;;;5053503;28;20040;-74
2023/04/04 00:25:19;;;;;;;6.10;1.58;;;;;;;;;;5053398;28;20044;-75
2023/04/04 00:28:23;;;;;;;5.13;1.00;;;12.40;70.70;;;;;;5053478;28;20072;-74
2023/04/04 00:31:26;;;;;;;5.60;1.38;;;12.30;70.80;;;;;;5052737;28;20032;-75
2023/04/04 00:34:31;;;;;;;3.58;1.27;;;;;;;;;;5053532;28;20051;-75
2023/04/04 00:37:34;;;;;;;4.20;1.48;;;12.00;70.70;;;;;;5052300;28;20033;-74
2023/04/04 00:40:44;;;;;;;8.52;1.48;;;12.30;71.60;;;;;;5053247;28;20508;-74
2023/04/04 00:43:49;;;;;;;4.03;1.13;;;;;;;;;;5053325;28;20044;-74
2023/04/04 00:46:53;;;;;;;3.15;1.50;;;;;;;;;;5052497;28;20049;-75
2023/04/04 00:49:57;;;;;;;3.42;1.48;;;12.10;72.60;;;;;;5052304;28;20029;-74
2023/04/04 00:53:01;;;;;;;4.72;1.38;;;;;;;;;;5053215;28;20064;-75
2023/04/04 00:56:08;;;;;;;6.72;1.55;;;12.20;72.60;;;;;;5053164;28;20470;-74
2023/04/04 00:59:13;;;;;;;8.02;1.85;;;12.10;72.40;;;;;;5052476;28;20385;-75
2023/04/04 01:02:17;;;;;;;8.13;1.60;;;;;;;;;;5052180;28;20393;-73
2023/04/04 01:05:21;;;;;;;8.13;2.00;;;12.50;72.90;;;;;;5052234;28;20041;-74
2023/04/04 01:08:28;;;;;;;8.20;1.42;;;11.20;72.40;;;;;;5051831;28;20052;-74
2023/04/04 01:11:32;;;;;;;7.03;1.70;;;11.60;72.90;;;;;;5051930;28;20047;-74
2023/04/04 01:14:39;;;;;;;7.00;1.52;;;12.20;73.30;;;;;;5052057;28;20068;-75
2023/04/04 01:17:44;;;;;;;11.02;1.70;;;;;;;;;;5052026;28;20064;-74
2023/04/04 01:21:03;;;;;;;6.88;1.40;;;11.80;72.70;;;;;;5051881;28;20041;-74
2023/04/04 01:24:12;;;;;;;6.35;1.60;;;12.10;72.40;;;;;;5051573;28;20412;-74
2023/04/04 01:27:25;;;;;;;5.25;1.35;;;12.00;72.20;;;;;;5029876;28;20048;-74
2023/04/04 01:30:37;;;;;;;5.68;1.52;;;12.10;72.50;;;;;;5051781;28;20043;-73
2023/04/04 01:33:46;;;;;;;7.25;1.20;;;;;;;;;;5051778;28;20065;-72
2023/04/04 01:36:55;;;;;;;4.50;1.60;;;12.00;71.60;;;;;;5051507;28;20037;-73
2023/04/04 01:40:16;;;;;;;4.00;1.63;;;11.70;71.50;;;;;;5051360;28;20040;-73
2023/04/04 01:43:22;;;;;;;;;;;;;;;;;;5051891;28;20069;-74
2023/04/04 01:46:26;;;;;;;6.32;1.42;;;11.20;70.90;;;;;;5052445;28;19916;-73
2023/04/04 01:49:31;;;;;;;7.30;1.95;;;;;;;;;;5051404;28;20048;-74
2023/04/04 01:52:36;;;;;;;8.02;1.70;;;12.20;71.70;;;;;;5052064;28;20033;-74
2023/04/04 01:55:41;;;;;;;6.50;1.80;;;12.00;71.40;;;;;;5051775;28;20039;-74
2023/04/04 01:58:46;;;;;;;5.47;1.77;;;12.10;71.00;;;;;;5051129;28;20067;-74
2023/04/04 02:01:50;;;;;;;6.18;1.60;;;;;;;;;;5051168;28;20048;-74
2023/04/04 02:04:54;;;;;;;7.57;1.70;;;12.00;70.30;;;;;;5051201;28;20480;-73
2023/04/04 02:07:58;;;;;;;4.63;1.50;;;12.20;70.30;;;;;;5051483;28;20523;-74
2023/04/04 02:11:09;;;;;;;5.90;1.85;;;12.30;70.40;;;;;;5051033;28;20385;-73
2023/04/04 02:14:13;;;;;;;6.65;2.00;;;12.60;70.90;;;;;;5050724;28;20051;-74
2023/04/04 02:17:18;;;;;;;5.88;1.58;;;;;;;;;;5051608;28;20040;-74
2023/04/04 02:20:22;;;;;;;9.90;1.60;;;;;;;;;;5050768;28;20045;-75
2023/04/04 02:23:27;;;;;;;5.80;1.50;;;;;;;;;;5050474;28;20033;-72
2023/04/04 02:26:32;;;;;;;5.00;1.60;;;;;;;;;;5051367;28;20497;-74
2023/04/04 02:29:36;;;;;;;6.03;2.53;;;12.10;70.20;;;;;;5051710;28;20045;-73
2023/04/04 02:32:40;;;;;;;6.97;1.98;;;12.10;70.30;;;;;;5050449;28;20429;-73
2023/04/04 02:35:45;;;;;;;5.85;2.38;;;12.20;70.20;;;;;;5049712;28;20072;-74
2023/04/04 02:38:50;;;;;;;8.40;1.80;;;;;;;;;;5051364;28;20044;-74
2023/04/04 02:41:54;;;;;;;8.05;1.67;;;12.10;69.80;;;;;;5051476;28;20037;-73
2023/04/04 02:44:58;;;;;;;6.85;1.70;;;;;;;;;;5051288;28;20052;-73
2023/04/04 02:48:03;;;;;;;6.85;1.88;;;;;;;;;;5050401;28;20049;-74
2023/04/04 02:51:16;;;;;;;10.95;2.08;;;;;;;;;;5050027;28;20366;-74
2023/04/04 02:54:20;;;;;;;6.95;1.92;;;11.90;71.70;;;;;;5050421;28;20045;-74
2023/04/04 02:57:24;;;;;;;6.55;1.75;;;11.90;71.60;;;;;;5049961;28;20051;-74
2023/04/04 03:00:28;;;;;;;8.35;1.90;;;11.80;71.70;;;;;;5050092;28;20036;-74
2023/04/04 03:03:33;;;;;;;9.68;2.03;;;;;;;;;;5050710;28;20417;-73
2023/04/04 03:06:38;;;;;;;7.47;2.17;;;11.90;72.60;;;;;;5050003;28;20032;-73
2023/04/04 03:09:45;;;;;;;5.35;2.13;;;;;;;;;;5050701;28;20055;-73
2023/04/04 03:12:50;;;;;;;8.98;2.35;;;11.70;72.00;;;;;;5050013;28;20032;-73
2023/04/04 03:16:03;;;;;;;7.38;2.08;;;11.80;71.30;;;;;;5050696;28;20043;-74
2023/04/04 03:19:13;;;;;;;6.88;1.90;;;11.80;71.50;;;;;;5049936;28;20505;-75
2023/04/04 03:22:17;;;;;;;7.57;1.92;;;12.90;73.10;;;;;;5050615;28;20040;-73
2023/04/04 03:25:21;;;;;;;7.00;2.22;;;11.70;69.90;;;;;;5050386;28;20099;-75
2023/04/04 03:28:25;;;;;;;5.32;1.92;;;12.00;70.20;;;;;;5050442;28;20060;-74
2023/04/04 03:31:30;;;;;;;5.07;1.63;;;11.70;70.20;;;;;;5049606;28;20047;-74
2023/04/04 03:34:33;;;;;;;7.65;2.03;;;11.80;71.10;;;;;;5049728;28;20147;-74
2023/04/04 03:37:38;;;;;;;6.45;2.15;;;11.70;71.90;;;;;;5050690;28;20044;-75
2023/04/04 03:40:44;;;;;;;4.75;1.98;;;10.90;71.40;;;;;;5049535;28;20047;-74
2023/04/04 03:43:50;;;;;;;2.88;1.67;;;;;;;;;;5049546;28;20047;-73
2023/04/04 03:46:54;;;;;;;5.28;1.95;;;11.80;68.80;;;;;;5038440;28;20481;-73
2023/04/04 03:50:00;;;;;;;7.22;1.85;;;12.10;68.70;;;;;;5053304;28;20048;-73
2023/04/04 03:53:05;;;;;;;7.70;2.28;;;12.80;69.10;;;;;;5053482;28;20520;-73
2023/04/04 03:56:09;;;;;;;6.82;1.88;;;11.80;68.90;;;;;;5054110;28;20473;-73
2023/04/04 03:59:13;;;;;;;10.27;2.17;;;11.90;68.70;;;;;;5054122;28;20059;-73
2023/04/04 04:02:17;;;;;;;10.20;2.10;;;11.80;68.80;;;;;;5054318;28;20048;-73
2023/04/04 04:05:21;;;;;;;8.20;2.30;;;11.70;69.10;;;;;;5053360;28;20488;-73
2023/04/04 04:08:26;;;;;;;8.10;2.60;;;11.70;68.80;;;;;;5052978;28;20052;-72
2023/04/04 04:11:30;;;;;;;8.15;2.00;;;11.70;69.30;;;;;;5053426;28;20045;-73
2023/04/04 04:14:34;;;;;;;7.70;2.00;;;11.70;68.80;;;;;;5053383;28;20044;-74
2023/04/04 04:17:40;;;;;;;6.35;2.13;;;11.70;69.00;;;;;;5053098;28;20519;-73
2023/04/04 04:20:46;;;;;;;10.85;2.55;;;11.70;68.60;;;;;;5041768;28;20040;-73
2023/04/04 04:23:50;;;;;;;4.78;2.15;;;11.70;69.10;;;;;;5052427;28;20048;-73
2023/04/04 04:26:55;;;;;;;3.88;2.00;;;11.60;68.50;;;;;;5041828;28;20512;-73
2023/04/04 04:29:59;;;;;;;9.45;2.20;;;11.70;68.90;;;;;;5052882;28;20492;-73
2023/04/04 04:33:03;;;;;;;7.57;2.38;;;11.60;69.20;;;;;;5053495;28;20048;-74
2023/04/04 04:36:14;;;;;;;9.63;2.42;;;11.60;69.20;;;;;;5052602;28;20047;-74
2023/04/04 04:39:29;;;;;;;4.68;2.05;;;;;;;;;;5041044;28;20048;-73
2023/04/04 04:42:53;;;;;;;7.47;2.00;;;11.30;68.90;;;;;;5052603;28;20048;-74
2023/04/04 04:46:00;;;;;;;10.02;2.38;;;11.50;69.80;;;;;;5052662;28;20048;-74
2023/04/04 04:49:04;;;;;;;12.77;2.42;;;11.40;70.50;;;;;;5052501;28;20048;-74
2023/04/04 04:52:09;;;;;;;14.80;2.95;;;12.90;71.50;;;;;;5052481;28;20065;-74
2023/04/04 04:55:19;;;;;;;10.55;2.92;;;10.80;70.60;;;;;;5041057;28;20040;-74
2023/04/04 04:58:37;;;;;;;16.88;3.50;;;11.30;71.10;;;;;;5051802;28;20060;-74
2023/04/04 05:01:45;;;;;;;17.00;2.95;;;11.60;71.20;;;;;;5052514;28;20095;-73
2023/04/04 05:04:49;;;;;;;6.47;2.60;;;11.50;70.50;;;;;;5053130;28;20048;-73
2023/04/04 05:07:54;;;;;;;9.27;2.15;;;11.30;71.00;;;;;;5052259;28;20071;-72
2023/04/04 05:10:58;;;;;;;12.63;2.85;;;11.50;70.80;;;;;;5052138;28;20040;-73
2023/04/04 05:14:06;;;;;;;13.30;2.95;;;;;;;;;;5052256;28;20072;-72
2023/04/04 05:17:14;;;;;;;17.02;3.50;;;;;;;;;;5052608;28;20049;-72
2023/04/04 05:20:19;;;;;;;14.75;2.40;;;12.00;69.10;;;;;;5052143;28;20040;-62
2023/04/04 05:23:26;;;;;;;16.55;2.83;;;;;;;;;;5052097;28;20056;-61
2023/04/04 05:26:30;;;;;;;12.43;2.47;;;13.60;70.00;;;;;;5051576;28;20071;-62
2023/04/04 05:29:35;;;;;;;13.27;3.13;;;;;;;;;;5052632;28;20051;-62
2023/04/04 05:32:40;;;;;;;10.18;2.65;;;;;;;;;;5051961;28;20045;-62
2023/04/04 05:35:51;;;;;;;12.90;2.80;;;;;;;;;;5051226;28;20061;-62
2023/04/04 05:38:56;;;;;;;8.55;2.75;;;;;;;;;;5051762;28;20041;-62
2023/04/04 05:42:03;;;;;;;26.38;3.10;;;13.50;67.10;;;;;;5051237;28;20153;-62
2023/04/04 05:45:12;;;;;;;9.02;2.90;;;13.80;66.30;;;;;;5051135;28;20504;-61
2023/04/04 05:48:16;;;;;;;8.23;2.45;;;13.90;64.80;;;;;;5051083;28;20067;-62
2023/04/04 05:51:26;;;;;;;8.70;2.47;;;;;;;;;;5051321;28;20052;-62
2023/04/04 05:54:43;;;;;;;24.13;3.42;;;14.10;65.50;;;;;;5050942;28;20041;-63
2023/04/04 05:57:53;;;;;;;7.78;2.17;;;14.90;63.80;;;;;;5051014;28;20548;-63
2023/04/04 06:01:09;;;;;;;13.75;2.60;;;14.20;64.60;;;;;;5051066;28;20044;-63
2023/04/04 06:04:15;;;;;;;30.45;3.10;;;;;;;;;;5050948;28;20049;-62
2023/04/04 06:07:20;;;;;;;12.10;2.70;;;13.50;65.70;;;;;;5050550;28;20046;-63
2023/04/04 06:10:25;;;;;;;18.98;3.83;;;;;;;;;;5051067;28;20048;-62
2023/04/04 06:13:32;;;;;;;13.80;2.58;;;;;;;;;;5051057;28;20041;-64
2023/04/04 06:16:41;;;;;;;7.55;3.13;;;13.30;67.70;;;;;;5051591;28;20037;-63
2023/04/04 06:19:45;;;;;;;11.57;2.50;;;13.30;66.80;;;;;;5050713;28;20524;-62
2023/04/04 06:22:50;;;;;;;9.18;2.55;;;;;;;;;;5051407;28;20500;-62
2023/04/04 06:25:55;;;;;;;13.82;2.75;;;;;;;;;;5050497;28;20068;-64
2023/04/04 06:29:00;;;;;;;15.60;2.70;;;;;;;;;;5050527;28;20195;-65
2023/04/04 06:32:08;;;;;;;15.02;3.08;;;12.70;67.90;;;;;;5050347;28;20033;-63
2023/04/04 06:35:19;;;;;;;8.40;2.58;;;12.70;67.20;;;;;;5050076;28;20048;-65
2023/04/04 06:38:32;;;;;;;8.95;3.15;;;12.50;67.80;;;;;;5050564;28;20044;-66
2023/04/04 06:41:41;;;;;;;7.20;2.47;;;12.60;68.10;;;;;;5050490;28;20040;-63
2023/04/04 06:44:45;;;;;;;14.00;2.90;;;12.60;68.40;;;;;;5050508;28;20074;-65
2023/04/04 06:47:50;;;;;;;19.92;3.67;;;12.60;68.80;;;;;;5050921;28;20060;-65
2023/04/04 06:50:54;;;;;;;14.77;2.72;;;12.70;68.30;;;;;;5050877;28;20051;-65
2023/04/04 06:54:00;;;;;;;8.48;2.78;;;12.80;67.30;;;;;;5050165;28;20362;-62
2023/04/04 06:57:03;;;;;;;9.93;2.60;;;12.60;68.00;;;;;;5051135;28;20052;-61
2023/04/04 07:00:09;;;;;;;11.88;2.92;;;12.70;67.10;;;;;;5049988;28;20044;-65
2023/04/04 07:03:12;;;;;;;8.55;2.35;;;12.70;67.40;;;;;;5050963;28;20040;-65
2023/04/04 07:06:18;;;;;;;12.07;2.90;;;12.80;67.40;;;;;;5050873;28;20044;-65
2023/04/04 07:09:22;;;;;;;9.80;2.63;;;13.20;67.00;;;;;;5050662;28;20115;-68
2023/04/04 07:12:26;;;;;;;9.60;2.70;;;12.80;66.80;;;;;;5050881;28;20040;-66
2023/04/04 07:15:30;;;;;;;11.50;2.53;;;13.20;66.90;;;;;;5050583;28;20048;-69
2023/04/04 07:18:35;;;;;;;13.05;2.47;;;;;;;;;;5050516;28;20051;-63
2023/04/04 07:21:39;;;;;;;13.48;2.97;;;13.00;66.40;;;;;;5049448;28;20048;-63
2023/04/04 07:24:43;;;;;;;10.73;2.38;;;;;;;;;;5050467;28;20539;-64
2023/04/04 07:27:47;;;;;;;20.50;3.30;;;12.60;66.00;;;;;;5050597;28;20052;-64
2023/04/04 07:30:52;;;;;;;13.63;2.45;;;;;;;;;;5050923;28;20048;-63
2023/04/04 07:33:56;;;;;;;12.77;2.92;;;;;;;;;;5050757;28;20064;-73
2023/04/04 07:37:00;;;;;;;8.70;2.45;;;16.80;66.60;;;;;;5050363;28;20040;-72
2023/04/04 07:40:07;;;;;;;4.78;2.90;;;13.40;65.40;;;;;;5050628;28;20039;-66
2023/04/04 07:43:11;;;;;;;8.63;2.50;;;13.40;65.60;;;;;;5050342;28;20508;-67
2023/04/04 07:46:15;;;;;;;11.13;2.60;;;;;;;;;;5050660;28;20056;-63
2023/04/04 07:49:20;;;;;;;12.50;3.00;;;;;;;;;;5049447;28;20408;-65
2023/04/04 07:52:23;;;;;;;13.13;2.83;;;13.60;65.80;;;;;;5050353;28;20436;-64
2023/04/04 07:55:28;;;;;;;19.15;2.97;;;13.70;65.30;;;;;;5050396;28;20052;-62
2023/04/04 07:58:35;;;;;;;10.40;2.75;;;13.60;65.20;;;;;;5037767;28;20397;-63
2023/04/04 08:01:40;;;;;;;11.68;3.22;;;;;;;;;;5048387;28;20048;-64
2023/04/04 08:04:43;;;;;;;19.23;2.63;;;13.80;65.40;;;;;;5049265;28;20609;-63
2023/04/04 08:07:48;;;;;;;14.15;3.13;;;;;;;;;;5049432;28;20064;-64
2023/04/04 08:10:52;;;;;;;11.93;3.15;;;;;;;;;;5048614;28;20068;-64
2023/04/04 08:13:56;;;;;;;10.05;3.40;;;;;;;;;;5049462;28;20044;-63
2023/04/04 08:17:01;;;;;;;12.32;3.13;;;;;;;;;;5049191;28;20048;-64
2023/04/04 08:20:05;;;;;;;13.82;3.13;;;13.50;66.10;;;;;;5049640;28;20049;-64
2023/04/04 08:23:11;;;;;;;10.55;3.60;;;;;;;;;;5050076;28;20048;-63
2023/04/04 08:26:16;;;;;;;10.80;4.03;;;;;;;;;;5049284;28;20044;-64
2023/04/04 08:29:20;;;;;;;13.75;2.90;;;;;;;;;;5051206;28;20048;-62
2023/04/04 08:32:25;;;;;;;9.80;2.35;;;;;;;;;;5050060;28;20404;-64
2023/04/04 08:35:29;;;;;;;10.15;2.90;;;;;;;;;;5052942;28;20037;-62
2023/04/04 08:38:33;;;;;;;21.48;3.53;;;;;;;;;;5053839;28;20409;-65
2023/04/04 08:41:42;;;;;;;14.35;3.13;;;14.20;65.60;;;;;;5054026;28;20389;-63
2023/04/04 08:44:51;;;;;;;12.52;3.13;;;14.30;65.20;;;;;;5053542;28;20044;-63
2023/04/04 08:47:57;;;;;;;15.13;2.88;;;14.60;64.10;;;;;;5053533;28;20044;-64
2023/04/04 08:51:03;;;;;;;6.18;2.67;;;16.30;63.80;;;;;;5053549;28;20535;-63
2023/04/04 08:54:09;;;;;;;13.23;2.60;;;14.70;62.90;;;;;;5053388;28;20146;-64
2023/04/04 08:57:13;;;;;;;11.50;2.90;;;14.80;64.30;;;;;;5052888;28;20056;-64
2023/04/04 09:00:20;;;;;;;17.75;3.13;;;15.10;63.80;;;;;;5053385;28;20048;-64
2023/04/04 09:03:26;;;;;;;10.98;3.05;;;14.10;61.80;;;;;;5053173;28;20063;-65
2023/04/04 09:06:30;;;;;;;12.25;2.70;;;14.40;63.40;;;;;;5052179;28;20045;-64
2023/04/04 09:09:36;;;;;;;8.55;2.63;;;13.70;63.10;;;;;;5052209;28;20409;-64
2023/04/04 09:12:44;;;;;;;8.77;2.80;;;14.90;64.00;;;;;;5040813;28;20048;-64
2023/04/04 09:15:53;;;;;;;11.95;2.78;;;15.00;63.20;;;;;;5053031;28;20047;-64
2023/04/04 09:18:57;;;;;;;7.22;2.50;;;15.00;62.90;;;;;;5052624;28;20389;-64
2023/04/04 09:22:01;;;;;;;10.18;2.70;;;15.10;62.30;;;;;;5052454;28;20052;-63
2023/04/04 09:25:07;;;;;;;10.13;3.50;;;15.50;62.50;;;;;;5052318;28;20052;-64
2023/04/04 09:28:16;;;;;;;8.82;2.83;;;15.50;63.00;;;;;;5052332;28;20508;-64
2023/04/04 09:31:20;;;;;;;12.32;2.38;;;15.70;62.20;;;;;;5052868;28;20048;-63
2023/04/04 09:34:24;;;;;;;8.70;2.20;;;15.90;61.20;;;;;;5051878;28;20381;-64
2023/04/04 09:37:29;;;;;;;15.10;2.33;;;16.10;61.50;;;;;;5052451;28;20040;-64
2023/04/04 09:40:36;;;;;;;7.43;2.50;;;16.20;62.00;;;;;;5052252;28;20048;-65
2023/04/04 09:43:44;;;;;;;4.22;2.20;;;16.20;61.20;;;;;;5052093;28;20421;-64
2023/04/04 09:46:50;;;;;;;7.68;2.40;;;16.30;61.40;;;;;;5052783;28;20373;-64
2023/04/04 09:49:58;;;;;;;9.88;2.28;;;16.50;60.50;;;;;;5052267;28;20420;-64
2023/04/04 09:53:02;;;;;;;4.30;2.10;;;16.30;60.10;;;;;;5052038;28;20401;-64
2023/04/04 09:56:07;;;;;;;9.25;2.63;;;16.00;60.70;;;;;;5051968;28;20044;-63
2023/04/04 09:59:11;;;;;;;17.25;2.90;;;16.00;60.70;;;;;;5050866;28;20048;-65
2023/04/04 10:02:15;;;;;;;12.75;2.42;;;15.50;62.90;;;;;;5051966;28;20048;-63
2023/04/04 10:05:19;;;;;;;16.35;2.40;;;15.30;61.30;;;;;;5052005;28;20048;-63
2023/04/04 10:08:26;;;;;;;5.30;2.42;;;13.80;61.20;;;;;;5051598;28;20048;-63
2023/04/04 10:11:32;;;;;;;10.98;2.35;;;15.10;61.70;;;;;;5052213;28;20048;-63
2023/04/04 10:14:37;;;;;;;4.82;1.95;;;14.80;62.10;;;;;;5052042;28;20064;-64
2023/04/04 10:17:43;;;;;;;14.98;2.50;;;15.20;63.40;;;;;;5051790;28;20055;-64
2023/04/04 10:20:48;;;;;;;12.43;3.42;;;14.90;62.60;;;;;;5051103;28;20429;-66
2023/04/04 10:23:54;;;;;;;12.18;2.30;;;15.20;62.30;;;;;;5050612;28;20047;-63
2023/04/04 10:26:59;;;;;;;8.27;2.80;;;;;;;;;;5051328;28;20048;-64
2023/04/04 10:30:03;;;;;;;10.70;4.00;;;15.40;61.90;;;;;;5050426;28;20049;-63
2023/04/04 10:33:15;;;;;;;7.63;2.40;;;15.00;60.40;;;;;;5051185;28;20322;-63
2023/04/04 10:36:25;;;;;;;5.75;2.05;;;15.20;61.50;;;;;;5050285;28;20196;-63
2023/04/04 10:39:50;;;;;;;8.18;2.30;;;15.10;61.20;;;;;;5050939;28;20413;-62
2023/04/04 10:42:56;;;;;;;8.73;2.25;;;15.10;60.50;;;;;;5050257;28;20060;-63
2023/04/04 10:46:14;;;;;;;12.27;2.38;;;14.90;61.20;;;;;;5051052;28;20063;-64
2023/04/04 10:49:20;;;;;;;9.80;2.13;;;15.00;60.30;;;;;;5050826;28;20123;-64
2023/04/04 10:52:27;;;;;;;9.43;2.30;;;15.20;61.30;;;;;;5050750;28;20047;-65
2023/04/04 10:55:32;;;;;;;10.25;2.05;;;15.30;61.10;;;;;;5050493;28;20043;-64
2023/04/04 10:58:40;;;;;;;7.68;2.22;;;15.30;60.30;;;;;;5051132;28;20032;-65
2023/04/04 11:01:58;;;;;;;7.90;2.50;;;15.30;60.80;;;;;;5051303;28;20055;-64
2023/04/04 11:05:29;;;;;;;8.93;2.50;;;14.20;59.50;;;;;;5049064;28;20048;-64
2023/04/04 11:08:36;;;;;;;8.60;1.75;;;15.20;59.70;;;;;;5049849;28;20051;-64
2023/04/04 11:12:09;;;;;;;5.00;1.95;;;15.20;59.10;;;;;;5049617;28;20115;-65
2023/04/04 11:15:13;;;;;;;7.00;2.00;;;15.30;60.10;;;;;;5050814;28;20048;-63
2023/04/04 11:18:19;;;;;;;13.65;2.42;;;15.40;59.90;;;;;;5049579;28;20039;-65
2023/04/04 11:21:25;;;;;;;6.03;1.73;;;15.40;58.70;;;;;;5050753;28;20047;-63
2023/04/04 11:24:29;;;;;;;14.90;2.90;;;15.50;59.80;;;;;;5050612;28;20048;-63
2023/04/04 11:27:33;;;;;;;5.63;2.10;;;14.80;59.50;;;;;;5050900;28;20047;-63
2023/04/04 11:30:43;;;;;;;6.68;1.92;;;15.30;59.90;;;;;;5050984;28;20649;-63
2023/04/04 11:34:10;;;;;;;9.23;2.40;;;15.40;59.60;;;;;;5050585;28;20032;-63
2023/04/04 11:37:18;;;;;;;6.63;2.28;;;15.90;59.60;;;;;;5050662;28;20048;-63
2023/04/04 11:40:41;;;;;;;11.65;1.83;;;15.60;58.60;;;;;;5050544;28;20036;-63
2023/04/04 11:43:45;;;;;;;6.47;2.28;;;15.60;59.30;;;;;;5050701;28;20428;-64
2023/04/04 11:47:08;;;;;;;9.02;2.63;;;15.70;59.50;;;;;;5049596;28;20527;-65
2023/04/04 11:50:13;;;;;;;3.83;1.90;;;15.60;58.70;;;;;;5050389;28;20377;-62
2023/04/04 11:53:17;;;;;;;4.82;1.75;;;15.50;58.20;;;;;;5050107;28;20496;-65
2023/04/04 11:56:22;;;;;;;5.15;1.98;;;15.50;58.70;;;;;;5050335;28;20063;-64
2023/04/04 11:59:26;;;;;;;6.82;1.90;;;15.60;58.70;;;;;;5050453;28;20048;-63
2023/04/04 12:02:33;;;;;;;8.55;2.22;;;15.70;58.10;;;;;;5049692;28;20396;-64
2023/04/04 12:05:38;;;;;;;7.65;2.00;;;15.70;58.90;;;;;;5049551;28;20040;-63
2023/04/04 12:08:43;;;;;;;6.68;2.42;;;15.70;59.50;;;;;;5051889;28;20044;-62
2023/04/04 12:11:47;;;;;;;10.50;3.25;;;15.70;59.80;;;;;;5054205;28;20445;-64
2023/04/04 12:14:53;;;;;;;8.27;2.72;;;15.40;59.60;;;;;;5053607;28;20049;-63
2023/04/04 12:17:58;;;;;;;10.02;2.33;;;17.70;61.10;;;;;;5054135;28;20484;-63
2023/04/04 12:21:02;;;;;;;6.20;2.50;;;15.20;60.20;;;;;;5051886;28;20044;-63
2023/04/04 12:24:07;;;;;;;8.25;2.58;;;15.20;60.90;;;;;;5052818;28;20056;-64
2023/04/04 12:27:12;;;;;;;13.25;4.32;;;15.20;60.10;;;;;;5052930;28;20045;-63
2023/04/04 12:30:17;;;;;;;14.90;3.40;;;15.30;60.50;;;;;;5053655;28;20059;-66
2023/04/04 12:33:21;;;;;;;8.13;2.90;;;15.20;60.80;;;;;;5053657;28;20500;-64
2023/04/04 12:36:28;;;;;;;18.13;3.53;;;15.50;60.80;;;;;;5053795;28;20052;-64
2023/04/04 12:39:32;;;;;;;5.07;2.55;;;15.30;60.70;;;;;;5052893;28;20043;-64
2023/04/04 12:42:36;;;;;;;5.63;2.25;;;15.20;60.70;;;;;;5053654;28;20408;-65
2023/04/04 12:45:42;;;;;;;5.65;2.22;;;15.20;60.60;;;;;;5053686;28;20040;-64
2023/04/04 12:48:48;;;;;;;8.85;2.17;;;13.20;60.10;;;;;;5053443;28;20563;-65
2023/04/04 12:51:53;;;;;;;17.85;3.50;;;15.20;61.10;;;;;;5053661;28;20048;-65
2023/04/04 12:55:08;;;;;;;11.85;2.40;;;15.20;60.80;;;;;;5053283;28;20047;-63
2023/04/04 12:58:14;;;;;;;11.57;2.60;;;15.30;61.50;;;;;;5053215;28;20397;-63
2023/04/04 13:01:20;;;;;;;6.22;2.00;;;15.30;60.30;;;;;;5053282;28;20528;-64
2023/04/04 13:04:24;;;;;;;16.30;3.00;;;15.50;60.60;;;;;;5052369;28;20044;-64
2023/04/04 13:07:37;;;;;;;7.68;2.78;;;14.60;60.30;;;;;;5053286;28;20503;-64
2023/04/04 13:11:05;;;;;;;9.27;2.38;;;15.40;60.00;;;;;;5053139;28;20072;-65
2023/04/04 13:14:09;;;;;;;8.27;2.47;;;15.10;59.90;;;;;;5053211;28;20500;-63
2023/04/04 13:17:13;;;;;;;10.20;2.47;;;15.20;60.10;;;;;;5052779;28;20043;-63
2023/04/04 13:20:18;;;;;;;8.95;2.63;;;15.30;60.00;;;;;;5052810;28;20036;-64
2023/04/04 13:23:22;;;;;;;6.85;2.42;;;15.50;61.10;;;;;;5053039;28;20044;-64
2023/04/04 13:26:27;;;;;;;5.70;2.25;;;13.70;60.30;;;;;;5052891;28;20048;-63
2023/04/04 13:29:31;;;;;;;4.93;2.30;;;15.40;60.40;;;;;;5052564;28;20096;-65
2023/04/04 13:32:35;;;;;;;10.95;3.45;;;15.30;60.60;;;;;;5052172;28;20040;-64
2023/04/04 13:35:43;;;;;;;10.45;2.75;;;15.20;60.40;;;;;;5052355;28;20503;-65
2023/04/04 13:38:46;;;;;;;13.07;3.00;;;15.30;60.30;;;;;;5052656;28;20048;-64
2023/04/04 13:41:51;;;;;;;8.38;2.88;;;15.40;60.40;;;;;;5052444;28;20036;-64
2023/04/04 13:44:55;;;;;;;13.07;2.45;;;15.10;60.20;;;;;;5052296;28;20495;-64
2023/04/04 13:47:58;;;;;;;8.52;2.30;;;13.00;60.00;;;;;;5052161;28;20531;-64
2023/04/04 13:51:02;;;;;;;7.65;2.10;;;15.30;60.90;;;;;;5052379;28;20047;-63
2023/04/04 13:54:06;;;;;;;14.35;3.03;;;16.00;61.20;;;;;;5052437;28;20036;-63
2023/04/04 13:57:11;;;;;;;8.57;2.05;;;;;;;;;;5052114;28;20047;-63
2023/04/04 14:00:15;;;;;;;8.77;2.58;;;14.90;61.30;;;;;;5052331;28;20037;-64
2023/04/04 14:03:20;;;;;;;14.20;3.10;;;15.50;61.20;;;;;;5051958;28;20048;-63
2023/04/04 14:06:24;;;;;;;7.85;2.08;;;;;;;;;;5051932;28;20044;-64
2023/04/04 14:09:28;;;;;;;15.57;2.47;;;15.20;62.10;;;;;;5051873;28;20041;-63
2023/04/04 14:12:32;;;;;;;9.43;2.78;;;;;;;;;;5051663;28;20048;-63
2023/04/04 14:15:38;;;;;;;10.30;2.72;;;;;;;;;;5051530;28;20184;-64
2023/04/04 14:18:43;;;;;;;14.82;2.35;;;;;;;;;;5051834;28;20046;-64
2023/04/04 14:21:48;;;;;;;20.70;3.53;;;15.40;62.10;;;;;;5050898;28;20366;-66
2023/04/04 14:24:52;;;;;;;5.88;2.35;;;;;;;;;;5051709;28;20436;-63
2023/04/04 14:27:56;;;;;;;10.43;2.63;;;15.50;62.70;;;;;;5050899;28;20033;-66
2023/04/04 14:31:00;;;;;;;4.50;1.80;;;14.90;61.80;;;;;;5050415;28;20155;-64
2023/04/04 14:34:04;;;;;;;11.40;2.70;;;;;;;;;;5051735;28;20040;-64
2023/04/04 14:37:08;;;;;;;11.20;3.20;;;14.90;62.70;;;;;;5051409;28;20056;-63
2023/04/04 14:40:12;;;;;;;7.97;2.67;;;;;;;;;;5051513;28;20039;-64
2023/04/04 14:43:16;;;;;;;10.27;2.75;;;15.70;63.20;;;;;;5050591;28;20041;-67
2023/04/04 14:46:20;;;;;;;6.57;2.05;;;17.40;64.00;;;;;;5051579;28;20040;-65
2023/04/04 14:49:25;;;;;;;3.20;2.22;;;;;;;;;;5051370;28;20055;-65
2023/04/04 14:52:29;;;;;;;8.55;2.28;;;14.80;62.80;;;;;;5051832;28;20041;-67
2023/04/04 14:55:34;;;;;;;7.85;2.85;;;;;;;;;;5051622;28;20169;-65
2023/04/04 14:58:38;;;;;;;13.32;2.75;;;14.60;62.80;;;;;;5051481;28;20041;-64
2023/04/04 15:01:42;;;;;;;7.55;2.97;;;;;;;;;;5051030;28;20039;-66
2023/04/04 15:04:46;;;;;;;11.40;3.35;;;;;;;;;;5050963;28;20041;-65
2023/04/04 15:07:51;;;;;;;4.30;2.17;;;;;;;;;;5050735;28;20048;-65
2023/04/04 15:10:55;;;;;;;10.60;2.20;;;;;;;;;;5051012;28;20053;-65
2023/04/04 15:13:59;;;;;;;19.83;3.83;;;;;;;;;;5050902;28;20048;-64
2023/04/04 15:17:03;;;;;;;15.98;3.28;;;15.30;64.10;;;;;;5050728;28;20488;-66
2023/04/04 15:20:08;;;;;;;10.45;3.00;;;14.20;62.90;;;;;;5049851;28;20214;-66
2023/04/04 15:23:12;;;;;;;9.95;2.67;;;14.90;63.10;;;;;;5050729;28;20576;-65
2023/04/04 15:26:16;;;;;;;8.55;3.08;;;;;;;;;;5050675;28;20055;-65
2023/04/04 15:29:20;;;;;;;10.52;3.25;;;;;;;;;;5050976;28;20068;-63
2023/04/04 15:32:24;;;;;;;7.07;3.40;;;14.70;63.50;;;;;;5050902;28;20504;-64
2023/04/04 15:35:29;;;;;;;16.17;2.78;;;14.70;63.80;;;;;;5050891;28;20397;-65
2023/04/04 15:38:33;;;;;;;10.05;2.80;;;;;;;;;;5050696;28;20044;-64
2023/04/04 15:41:38;;;;;;;8.10;2.95;;;;;;;;;;5050720;28;20040;-65
2023/04/04 15:44:43;;;;;;;5.47;2.30;;;;;;;;;;5054672;28;20033;-67
2023/04/04 15:47:47;;;;;;;7.40;2.88;;;;;;;;;;5053969;28;20041;-64
2023/04/04 15:50:51;;;;;;;24.15;3.55;;;;;;;;;;5054549;28;20041;-64
2023/04/04 15:53:56;;;;;;;9.63;2.70;;;14.10;63.80;;;;;;5054440;28;20048;-65
2023/04/04 15:57:00;;;;;;;6.28;2.92;;;;;;;;;;5054616;28;20048;-64
2023/04/04 16:00:05;;;;;;;13.20;2.88;;;14.20;64.10;;;;;;5053808;28;20037;-64
2023/04/04 16:03:12;;;;;;;4.88;2.53;;;;;;;;;;5054238;28;20048;-64
2023/04/04 16:06:16;;;;;;;8.27;3.17;;;;;;;;;;5053952;28;20037;-65
2023/04/04 16:09:20;;;;;;;14.63;3.40;;;;;;;;;;5054393;28;20390;-63
2023/04/04 16:12:25;;;;;;;6.45;3.15;;;;;;;;;;5053739;28;20044;-63
2023/04/04 16:15:29;;;;;;;7.68;3.30;;;12.60;67.60;;;;;;5054164;28;20041;-66
2023/04/04 16:18:32;;;;;;;7.72;3.08;;;12.60;67.30;;;;;;5054013;28;20051;-65
2023/04/04 16:21:36;;;;;;;10.18;3.42;;;12.60;67.80;;;;;;5053161;28;20052;-65
2023/04/04 16:24:40;;;;;;;11.15;3.28;;;11.80;67.80;;;;;;5053645;28;20048;-67
2023/04/04 16:27:44;;;;;;;7.50;3.28;;;12.80;68.60;;;;;;5053689;28;20048;-63
2023/04/04 16:30:49;;;;;;;7.43;3.60;;;12.60;68.30;;;;;;5053778;28;20072;-64
2023/04/04 16:33:52;;;;;;;9.20;3.45;;;12.40;68.70;;;;;;5053926;28;20068;-69
2023/04/04 16:36:56;;;;;;;9.30;3.00;;;12.30;69.00;;;;;;5053824;28;20055;-64